createdAt,value
2022-08-17T00:00:00.512Z,11.23
2022-08-17T00:02:27.568Z,9.02
2022-08-17T00:04:55.538Z,6.43
2022-08-17T00:07:23.430Z,10.25
2022-08-17T00:09:50.492Z,9.13
2022-08-17T00:12:43.446Z,8.90
2022-08-17T00:15:06.378Z,9.68
2022-08-17T00:17:37.453Z,8.85
2022-08-17T00:20:05.098Z,8.18
2022-08-17T00:22:46.686Z,7.70
2022-08-17T00:25:20.093Z,6.57
2022-08-17T00:27:46.915Z,12.70
2022-08-17T00:30:14.396Z,7.75
2022-08-17T00:33:23.097Z,6.82
2022-08-17T00:35:34.497Z,10.57
2022-08-17T00:38:01.177Z,14.07
2022-08-17T00:40:40.784Z,13.73
2022-08-17T00:43:20.093Z,8.55
2022-08-17T00:45:47.771Z,7.97
2022-08-17T00:48:28.932Z,6.03
2022-08-17T00:51:02.365Z,10.80
2022-08-17T00:53:31.668Z,8.93
2022-08-17T00:56:05.101Z,9.15
2022-08-17T00:58:36.633Z,9.20
2022-08-17T01:01:06.764Z,7.95
2022-08-17T01:03:35.850Z,9.35
2022-08-17T01:06:04.578Z,6.47
2022-08-17T01:08:32.959Z,5.75
2022-08-17T01:11:04.165Z,6.95
2022-08-17T01:13:43.368Z,9.40
2022-08-17T01:16:30.525Z,12.85
2022-08-17T01:19:01.187Z,7.15
2022-08-17T01:21:27.999Z,7.72
2022-08-17T01:23:55.678Z,8.48
2022-08-17T01:26:23.308Z,9.38
2022-08-17T01:28:55.084Z,7.72
2022-08-17T01:31:23.951Z,7.75
2022-08-17T01:33:51.096Z,8.02
2022-08-17T01:36:18.362Z,10.48
2022-08-17T01:38:45.328Z,7.03
2022-08-17T01:41:16.627Z,10.43
2022-08-17T01:43:52.115Z,7.97
2022-08-17T01:46:23.452Z,9.23
2022-08-17T01:48:51.319Z,7.00
2022-08-17T01:51:19.308Z,7.53
2022-08-17T01:53:52.615Z,6.25
2022-08-17T01:56:22.658Z,6.82
2022-08-17T01:58:49.411Z,9.18
2022-08-17T02:01:19.183Z,10.27
2022-08-17T02:03:53.337Z,7.72
2022-08-17T02:06:31.605Z,9.85
2022-08-17T02:09:17.040Z,7.65
2022-08-17T02:11:45.252Z,9.80
2022-08-17T02:14:13.530Z,10.23
2022-08-17T02:16:41.071Z,8.82
2022-08-17T02:19:11.314Z,10.13
2022-08-17T02:21:39.520Z,8.65
2022-08-17T02:24:11.096Z,7.62
2022-08-17T02:26:37.968Z,9.30
2022-08-17T02:29:04.944Z,8.25
2022-08-17T02:31:31.780Z,8.15
2022-08-17T02:34:03.896Z,8.73
2022-08-17T02:36:35.785Z,6.78
2022-08-17T02:39:04.665Z,9.80
2022-08-17T02:41:31.573Z,8.33
2022-08-17T02:43:58.843Z,8.25
2022-08-17T02:46:26.333Z,8.25
2022-08-17T02:48:53.028Z,8.63
2022-08-17T02:51:20.196Z,6.53
2022-08-17T02:53:47.289Z,5.87
2022-08-17T02:56:14.199Z,8.25
2022-08-17T02:58:41.071Z,6.87
2022-08-17T03:01:10.071Z,8.93
2022-08-17T03:03:37.890Z,6.18
2022-08-17T03:06:05.450Z,8.80
2022-08-17T03:08:32.296Z,12.93
2022-08-17T03:10:59.075Z,7.40
2022-08-17T03:13:27.666Z,9.30
2022-08-17T03:15:54.555Z,10.15
2022-08-17T03:18:25.264Z,12.88
2022-08-17T03:21:00.649Z,7.80
2022-08-17T03:23:29.638Z,6.80
2022-08-17T03:28:24.903Z,10.02
2022-08-17T03:30:52.700Z,5.68
2022-08-17T03:33:19.569Z,7.80
2022-08-17T03:35:47.056Z,6.70
2022-08-17T03:38:16.008Z,8.07
2022-08-17T03:40:56.625Z,9.98
2022-08-17T03:43:30.686Z,9.30
2022-08-17T03:46:33.815Z,10.75
2022-08-17T03:49:26.194Z,12.18
2022-08-17T03:52:15.777Z,9.20
2022-08-17T03:57:29.307Z,9.50
2022-08-17T03:59:57.342Z,7.78
2022-08-17T04:02:25.773Z,9.68
2022-08-17T04:04:53.953Z,7.25
2022-08-17T04:07:23.052Z,7.78
2022-08-17T04:09:50.798Z,12.27
2022-08-17T04:12:20.117Z,12.75
2022-08-17T04:14:53.146Z,12.63
2022-08-17T04:17:26.587Z,13.15
2022-08-17T04:19:54.489Z,7.97
2022-08-17T04:22:32.869Z,8.35
2022-08-17T04:25:09.915Z,7.20
2022-08-17T04:27:36.759Z,10.60
2022-08-17T04:30:06.037Z,6.05
2022-08-17T04:33:04.018Z,6.43
2022-08-17T04:35:23.901Z,6.65
2022-08-17T04:37:51.718Z,5.85
2022-08-17T04:40:38.080Z,8.00
2022-08-17T04:43:18.648Z,6.25
2022-08-17T04:45:57.871Z,6.70
2022-08-17T04:48:36.706Z,9.77
2022-08-17T04:53:37.677Z,8.13
2022-08-17T04:56:05.323Z,6.80
2022-08-17T04:58:32.199Z,5.72
2022-08-17T05:00:59.020Z,7.78
2022-08-17T05:03:26.200Z,11.80
2022-08-17T05:05:53.818Z,16.90
2022-08-17T05:08:22.006Z,10.20
2022-08-17T05:10:49.217Z,14.05
2022-08-17T05:13:24.889Z,7.05
2022-08-17T05:15:56.741Z,15.57
2022-08-17T05:18:24.683Z,66.62
2022-08-17T05:20:52.485Z,50.08
2022-08-17T05:23:21.641Z,17.48
2022-08-17T05:25:51.586Z,22.40
2022-08-17T05:28:24.147Z,42.35
2022-08-17T05:30:56.935Z,36.05
2022-08-17T05:35:56.606Z,30.05
2022-08-17T05:38:25.614Z,18.55
2022-08-17T05:40:53.765Z,10.57
2022-08-17T05:43:22.382Z,16.10
2022-08-17T05:45:56.468Z,11.02
2022-08-17T05:48:35.689Z,12.63
2022-08-17T05:51:15.634Z,15.80
2022-08-17T05:53:48.144Z,9.43
2022-08-17T05:56:34.742Z,9.95
2022-08-17T05:59:27.183Z,12.98
2022-08-17T06:02:26.713Z,17.75
2022-08-17T06:05:05.419Z,14.32
2022-08-17T06:07:46.269Z,20.37
2022-08-17T06:10:34.320Z,12.68
2022-08-17T06:13:12.922Z,13.13
2022-08-17T06:16:33.794Z,8.57
2022-08-17T06:19:21.868Z,13.62
2022-08-17T06:21:53.087Z,13.65
2022-08-17T06:24:35.458Z,9.90
2022-08-17T06:27:13.568Z,13.90
2022-08-17T06:29:58.247Z,9.75
2022-08-17T06:32:25.779Z,10.95
2022-08-17T06:34:52.985Z,7.85
2022-08-17T06:37:48.937Z,8.40
2022-08-17T06:40:45.948Z,9.43
2022-08-17T06:43:34.223Z,8.35
2022-08-17T06:46:11.554Z,9.85
2022-08-17T06:49:08.282Z,13.85
2022-08-17T06:51:40.741Z,12.90
2022-08-17T06:54:19.740Z,13.68
2022-08-17T06:56:57.503Z,7.35
2022-08-17T06:59:55.373Z,8.25
2022-08-17T07:03:01.704Z,8.82
2022-08-17T07:05:44.708Z,6.57
2022-08-17T07:08:42.843Z,11.77
2022-08-17T07:11:26.306Z,8.35
2022-08-17T07:14:18.537Z,6.37
2022-08-17T07:16:50.888Z,7.80
2022-08-17T07:19:22.690Z,6.43
2022-08-17T07:22:24.987Z,6.45
2022-08-17T07:25:05.586Z,10.98
2022-08-17T07:27:40.792Z,10.73
2022-08-17T07:30:17.880Z,9.23
2022-08-17T07:32:53.987Z,8.98
2022-08-17T07:35:40.719Z,5.87
2022-08-17T07:38:28.746Z,10.30
2022-08-17T07:41:02.316Z,9.13
2022-08-17T07:43:39.698Z,7.12
2022-08-17T07:46:24.735Z,10.98
2022-08-17T07:48:54.924Z,7.20
2022-08-17T07:51:25.362Z,8.52
2022-08-17T07:54:12.905Z,6.75
2022-08-17T07:56:47.152Z,5.85
2022-08-17T07:59:23.307Z,8.48
2022-08-17T08:01:57.521Z,5.87
2022-08-17T08:05:06.628Z,10.38
2022-08-17T08:07:42.682Z,11.73
2022-08-17T08:10:16.971Z,10.25
2022-08-17T08:12:52.779Z,7.70
2022-08-17T08:15:25.895Z,5.90
2022-08-17T08:18:01.616Z,5.68
2022-08-17T08:21:08.966Z,8.38
2022-08-17T08:24:14.525Z,7.15
2022-08-17T08:26:58.472Z,6.95
2022-08-17T08:29:51.040Z,7.53
2022-08-17T08:32:51.977Z,9.20
2022-08-17T08:35:54.062Z,8.80
2022-08-17T08:38:42.779Z,9.68
2022-08-17T08:44:16.455Z,5.65
2022-08-17T08:46:59.986Z,7.43
2022-08-17T08:50:01.393Z,9.20
2022-08-17T08:52:21.819Z,5.60
2022-08-17T08:54:57.043Z,8.25
2022-08-17T08:57:34.561Z,5.15
2022-08-17T09:00:04.912Z,5.82
2022-08-17T09:02:37.979Z,8.20
2022-08-17T09:05:22.910Z,6.55
2022-08-17T09:08:11.283Z,4.70
2022-08-17T09:11:12.855Z,6.05
2022-08-17T09:14:01.789Z,9.38
2022-08-17T09:16:36.180Z,6.30
2022-08-17T09:19:33.439Z,4.32
2022-08-17T09:22:31.729Z,6.72
2022-08-17T09:28:16.803Z,8.25
2022-08-17T09:30:55.653Z,4.60
2022-08-17T09:33:27.216Z,5.12
2022-08-17T09:36:10.267Z,9.98
2022-08-17T09:38:58.280Z,6.68
2022-08-17T09:41:49.132Z,5.72
2022-08-17T09:44:46.006Z,6.53
2022-08-17T09:47:45.671Z,5.78
2022-08-17T09:51:05.423Z,9.65
2022-08-17T09:53:12.473Z,7.62
2022-08-17T09:56:14.787Z,7.07
2022-08-17T09:59:16.987Z,5.87
2022-08-17T10:01:56.780Z,7.50
2022-08-17T10:04:39.853Z,5.62
2022-08-17T10:07:19.076Z,8.93
2022-08-17T10:09:56.949Z,4.12
2022-08-17T10:12:47.101Z,5.20
2022-08-17T10:15:37.489Z,5.47
2022-08-17T10:18:37.842Z,4.40
2022-08-17T10:21:30.297Z,11.65
2022-08-17T10:24:36.500Z,6.03
2022-08-17T10:27:08.549Z,9.60
2022-08-17T10:29:48.499Z,5.43
2022-08-17T10:33:00.864Z,4.62
2022-08-17T10:36:10.650Z,6.55
2022-08-17T10:39:00.441Z,4.25
2022-08-17T10:41:49.624Z,4.30
2022-08-17T10:44:45.769Z,9.00
2022-08-17T10:47:16.440Z,4.85
2022-08-17T10:49:54.239Z,6.85
2022-08-17T10:52:22.022Z,7.55
2022-08-17T10:54:51.798Z,11.25
2022-08-17T10:57:34.466Z,5.62
2022-08-17T11:00:14.952Z,7.68
2022-08-17T11:02:53.683Z,6.28
2022-08-17T11:05:29.601Z,5.25
2022-08-17T11:08:27.350Z,8.60
2022-08-17T11:11:09.654Z,4.97
2022-08-17T11:13:46.183Z,4.45
2022-08-17T11:16:50.444Z,6.45
2022-08-17T11:19:26.668Z,3.78
2022-08-17T11:22:33.573Z,4.37
2022-08-17T11:25:20.558Z,5.32
2022-08-17T11:27:54.094Z,7.00
2022-08-17T11:30:48.594Z,4.32
2022-08-17T11:33:38.238Z,7.60
2022-08-17T11:36:37.927Z,6.93
2022-08-17T11:39:32.530Z,4.78
2022-08-17T11:42:08.553Z,6.75
2022-08-17T11:44:53.400Z,4.20
2022-08-17T11:48:26.708Z,7.78
2022-08-17T11:51:47.321Z,4.20
2022-08-17T11:54:39.518Z,5.25
2022-08-17T11:57:27.924Z,5.95
2022-08-17T11:59:59.050Z,4.53
2022-08-17T12:02:32.603Z,6.82
2022-08-17T12:05:14.686Z,7.10
2022-08-17T12:07:52.621Z,5.75
2022-08-17T12:10:30.644Z,6.30
2022-08-17T12:13:06.201Z,4.07
2022-08-17T12:15:39.532Z,3.95
2022-08-17T12:18:06.421Z,8.75
2022-08-17T12:20:40.240Z,5.68
2022-08-17T12:23:09.627Z,4.43
2022-08-17T12:25:39.951Z,7.93
2022-08-17T12:28:23.279Z,6.97
2022-08-17T12:30:52.023Z,3.83
2022-08-17T12:33:27.831Z,5.32
2022-08-17T12:36:15.734Z,4.90
2022-08-17T12:39:13.697Z,5.32
2022-08-17T12:41:47.392Z,4.93
2022-08-17T12:44:17.274Z,4.22
2022-08-17T12:47:09.828Z,8.75
2022-08-17T12:49:39.578Z,5.53
2022-08-17T12:52:13.746Z,6.18
2022-08-17T12:54:52.721Z,6.72
2022-08-17T12:57:31.437Z,7.55
2022-08-17T13:00:28.954Z,5.80
2022-08-17T13:02:58.599Z,4.20
2022-08-17T13:05:30.504Z,5.62
2022-08-17T13:07:59.927Z,4.50
2022-08-17T13:10:33.016Z,3.60
2022-08-17T13:13:05.436Z,6.32
2022-08-17T13:15:44.444Z,4.55
2022-08-17T13:18:49.851Z,9.00
2022-08-17T13:21:19.893Z,9.95
2022-08-17T13:24:01.906Z,6.97
2022-08-17T13:26:40.424Z,11.02
2022-08-17T13:31:52.450Z,3.65
2022-08-17T13:34:26.975Z,5.40
2022-08-17T13:37:25.833Z,4.65
2022-08-17T13:39:54.821Z,2.97
2022-08-17T13:42:52.296Z,9.15
2022-08-17T13:45:36.578Z,4.93
2022-08-17T13:48:32.197Z,6.32
2022-08-17T13:50:59.738Z,4.20
2022-08-17T13:53:33.535Z,2.60
2022-08-17T13:56:37.027Z,5.45
2022-08-17T13:59:02.882Z,4.22
2022-08-17T14:01:37.024Z,3.28
2022-08-17T14:04:13.789Z,4.10
2022-08-17T14:06:58.082Z,3.60
2022-08-17T14:09:32.449Z,6.00
2022-08-17T14:12:04.334Z,3.30
2022-08-17T14:14:31.410Z,4.28
2022-08-17T14:16:58.335Z,4.72
2022-08-17T14:19:26.335Z,3.17
2022-08-17T14:21:56.705Z,4.72
2022-08-17T14:24:26.812Z,5.05
2022-08-17T14:26:53.955Z,3.70
2022-08-17T14:29:23.082Z,4.37
2022-08-17T14:31:54.268Z,7.40
2022-08-17T14:34:23.132Z,3.72
2022-08-17T14:36:50.358Z,7.80
2022-08-17T14:39:18.398Z,6.00
2022-08-17T14:41:45.575Z,4.97
2022-08-17T14:44:13.193Z,4.78
2022-08-17T14:46:41.984Z,5.00
2022-08-17T14:49:11.478Z,3.75
2022-08-17T14:54:11.867Z,4.53
2022-08-17T14:57:22.220Z,4.73
2022-08-17T14:59:46.073Z,3.75
2022-08-17T15:02:13.504Z,2.95
2022-08-17T15:04:45.339Z,5.20
2022-08-17T15:07:12.545Z,6.10
2022-08-17T15:09:39.409Z,3.45
2022-08-17T15:12:06.782Z,4.35
2022-08-17T15:14:35.604Z,5.05
2022-08-17T15:17:03.880Z,4.30
2022-08-17T15:19:30.921Z,7.37
2022-08-17T15:21:57.787Z,5.37
2022-08-17T15:24:24.980Z,6.20
2022-08-17T15:26:52.075Z,9.57
2022-08-17T15:29:18.852Z,6.10
2022-08-17T15:31:45.820Z,5.05
2022-08-17T15:34:12.574Z,5.40
2022-08-17T15:36:43.861Z,4.82
2022-08-17T15:39:19.488Z,8.18
2022-08-17T15:41:47.564Z,7.57
2022-08-17T15:44:32.350Z,5.12
2022-08-17T15:47:02.080Z,5.00
2022-08-17T15:49:28.896Z,8.10
2022-08-17T15:51:56.023Z,8.25
2022-08-17T15:54:23.551Z,6.10
2022-08-17T15:56:50.630Z,8.07
2022-08-17T15:59:17.373Z,7.60
2022-08-17T16:03:04.658Z,4.37
2022-08-17T16:04:31.745Z,6.85
2022-08-17T16:06:59.793Z,10.23
2022-08-17T16:09:27.209Z,6.43
2022-08-17T16:11:56.320Z,6.70
2022-08-17T16:14:30.285Z,4.05
2022-08-17T16:17:01.139Z,6.20
2022-08-17T16:19:27.954Z,4.37
2022-08-17T16:21:54.911Z,5.03
2022-08-17T16:24:21.697Z,5.05
2022-08-17T16:26:48.893Z,4.15
2022-08-17T16:29:16.020Z,4.90
2022-08-17T16:31:43.459Z,4.87
2022-08-17T16:34:16.813Z,6.50
2022-08-17T16:36:55.636Z,5.15
2022-08-17T16:39:25.729Z,3.47
2022-08-17T16:41:52.710Z,5.68
2022-08-17T16:44:21.451Z,7.90
2022-08-17T16:46:49.073Z,5.25
2022-08-17T16:49:35.332Z,5.07
2022-08-17T16:52:04.461Z,7.47
2022-08-17T16:54:31.259Z,5.43
2022-08-17T16:56:58.176Z,3.95
2022-08-17T16:59:30.166Z,3.25
2022-08-17T17:02:05.014Z,5.07
2022-08-17T17:04:35.171Z,7.62
2022-08-17T17:07:40.025Z,5.68
2022-08-17T17:10:15.638Z,7.80
2022-08-17T17:13:02.899Z,3.47
2022-08-17T17:16:06.474Z,7.18
2022-08-17T17:18:53.270Z,7.03
2022-08-17T17:21:27.527Z,8.43
2022-08-17T17:24:04.038Z,12.40
2022-08-17T17:27:18.066Z,6.03
2022-08-17T17:29:59.005Z,4.87
2022-08-17T17:32:38.197Z,6.87
2022-08-17T17:35:25.433Z,6.57
2022-08-17T17:37:54.228Z,5.37
2022-08-17T17:40:29.371Z,6.85
2022-08-17T17:43:14.229Z,9.60
2022-08-17T17:45:58.636Z,5.47
2022-08-17T17:48:45.300Z,5.60
2022-08-17T17:52:06.681Z,7.43
2022-08-17T17:54:48.200Z,6.28
2022-08-17T17:57:33.025Z,6.35
2022-08-17T18:00:05.396Z,8.13
2022-08-17T18:02:54.947Z,7.18
2022-08-17T18:05:36.913Z,4.55
2022-08-17T18:08:33.830Z,6.30
2022-08-17T18:11:34.906Z,6.50
2022-08-17T18:14:14.509Z,9.43
2022-08-17T18:19:15.859Z,6.97
2022-08-17T18:21:47.428Z,9.32
2022-08-17T18:24:14.472Z,8.48
2022-08-17T18:26:46.109Z,10.93
2022-08-17T18:29:31.725Z,7.30
2022-08-17T18:32:32.660Z,9.43
2022-08-17T18:35:27.852Z,5.28
2022-08-17T18:38:28.826Z,9.55
2022-08-17T18:41:02.396Z,8.13
2022-08-17T18:43:52.881Z,12.07
2022-08-17T18:46:37.757Z,5.60
2022-08-17T18:49:28.483Z,7.82
2022-08-17T18:52:10.952Z,5.15
2022-08-17T18:54:38.712Z,8.23
2022-08-17T18:57:07.852Z,6.32
2022-08-17T18:59:48.441Z,7.40
2022-08-17T19:02:29.708Z,10.10
2022-08-17T19:05:04.790Z,8.52
2022-08-17T19:07:42.251Z,9.02
2022-08-17T19:10:26.120Z,13.18
2022-08-17T19:13:00.890Z,12.65
2022-08-17T19:15:38.099Z,9.88
2022-08-17T19:18:15.832Z,8.60
2022-08-17T19:21:00.857Z,13.98
2022-08-17T19:23:36.768Z,6.82
2022-08-17T19:26:50.318Z,12.40
2022-08-17T19:29:02.491Z,10.50
2022-08-17T19:31:31.403Z,7.80
2022-08-17T19:34:00.772Z,8.35
2022-08-17T19:39:22.709Z,7.45
2022-08-17T19:42:01.363Z,10.18
2022-08-17T19:45:16.322Z,7.87
2022-08-17T19:47:55.330Z,9.13
2022-08-17T19:50:41.392Z,7.43
2022-08-17T19:54:01.750Z,7.47
2022-08-17T19:56:31.892Z,10.57
2022-08-17T19:59:26.534Z,6.60
2022-08-17T20:02:01.421Z,7.18
2022-08-17T20:04:41.463Z,6.75
2022-08-17T20:07:20.213Z,10.60
2022-08-17T20:09:53.024Z,9.30
2022-08-17T20:12:28.434Z,5.90
2022-08-17T20:15:00.464Z,6.22
2022-08-17T20:17:34.579Z,8.23
2022-08-17T20:20:38.901Z,11.00
2022-08-17T20:23:32.938Z,8.90
2022-08-17T20:26:10.229Z,8.40
2022-08-17T20:28:39.331Z,8.70
2022-08-17T20:31:45.790Z,9.07
2022-08-17T20:34:33.772Z,9.82
2022-08-17T20:37:04.403Z,9.30
2022-08-17T20:39:39.547Z,6.70
2022-08-17T20:42:30.608Z,6.43
2022-08-17T20:45:21.625Z,7.45
2022-08-17T20:48:18.720Z,8.15
2022-08-17T20:50:45.539Z,12.63
2022-08-17T20:53:55.540Z,6.55
2022-08-17T20:56:44.417Z,6.20
2022-08-17T20:59:25.691Z,9.65
2022-08-17T21:02:19.348Z,8.88
2022-08-17T21:04:56.488Z,9.68
2022-08-17T21:07:42.761Z,8.55
2022-08-17T21:10:23.712Z,6.20
2022-08-17T21:13:08.461Z,14.90
2022-08-17T21:16:13.211Z,8.27
2022-08-17T21:19:23.847Z,11.30
2022-08-17T21:22:26.148Z,10.57
2022-08-17T21:25:11.539Z,8.93
2022-08-17T21:28:12.707Z,8.52
2022-08-17T21:30:39.517Z,6.30
2022-08-17T21:33:12.339Z,6.05
2022-08-17T21:35:54.044Z,7.60
2022-08-17T21:38:42.788Z,8.95
2022-08-17T21:41:28.662Z,10.15
2022-08-17T21:44:05.429Z,12.00
2022-08-17T21:46:37.765Z,5.90
2022-08-17T21:49:13.475Z,7.18
2022-08-17T21:51:50.563Z,10.48
2022-08-17T21:54:38.932Z,10.88
2022-08-17T21:57:15.040Z,8.88
2022-08-17T21:59:43.818Z,9.40
2022-08-17T22:02:24.082Z,9.07
2022-08-17T22:05:06.880Z,8.82
2022-08-17T22:07:38.867Z,8.25
2022-08-17T22:10:26.312Z,5.90
2022-08-17T22:13:06.214Z,11.35
2022-08-17T22:15:49.404Z,9.15
2022-08-17T22:18:27.787Z,9.32
2022-08-17T22:20:59.429Z,9.85
2022-08-17T22:23:57.253Z,8.45
2022-08-17T22:26:28.288Z,10.98
2022-08-17T22:28:59.091Z,8.30
2022-08-17T22:31:32.878Z,10.55
2022-08-17T22:34:02.396Z,8.85
2022-08-17T22:39:09.700Z,6.50
2022-08-17T22:41:48.528Z,9.23
2022-08-17T22:44:24.438Z,8.70
2022-08-17T22:47:03.525Z,7.47
2022-08-17T22:49:53.557Z,8.07
2022-08-17T22:52:36.182Z,10.65
2022-08-17T22:55:32.645Z,7.72
2022-08-17T22:58:19.146Z,8.48
2022-08-17T23:00:48.942Z,9.82
2022-08-17T23:03:25.045Z,8.93
2022-08-17T23:06:10.569Z,8.65
2022-08-17T23:08:58.158Z,7.35
2022-08-17T23:11:36.646Z,5.72
2022-08-17T23:16:42.887Z,9.60
2022-08-17T23:19:15.469Z,5.85
2022-08-17T23:21:46.551Z,8.65
2022-08-17T23:24:26.175Z,6.60
2022-08-17T23:26:54.678Z,10.18
2022-08-17T23:29:21.645Z,6.03
2022-08-17T23:31:50.646Z,9.88
2022-08-17T23:34:18.694Z,6.40
2022-08-17T23:36:52.271Z,8.10
2022-08-17T23:39:27.385Z,7.47
2022-08-17T23:41:57.251Z,5.90
2022-08-17T23:44:24.017Z,11.98
2022-08-17T23:46:52.101Z,10.27
2022-08-17T23:49:19.276Z,7.40
2022-08-17T23:51:48.533Z,6.80
2022-08-17T23:54:21.115Z,7.15
2022-08-17T23:56:47.946Z,6.95
2022-08-17T23:59:16.499Z,7.80
